sensor_id;sensor_type;location;lat;lon;timestamp;pressure;altitude;pressure_sealevel;temperature;humidity
55590;BME280;41452;42.780;23.116;2023-04-21T00:02:17;93948.34;;;7.46;97.40
55590;BME280;41452;42.780;23.116;2023-04-21T00:04:42;93962.25;;;7.58;97.36
55590;BME280;41452;42.780;23.116;2023-04-21T00:07:10;93954.66;;;7.57;96.22
55590;BME280;41452;42.780;23.116;2023-04-21T00:09:39;93967.22;;;7.48;96.55
55590;BME280;41452;42.780;23.116;2023-04-21T00:12:04;93965.63;;;7.47;96.94
55590;BME280;41452;42.780;23.116;2023-04-21T00:14:29;93961.84;;;7.43;96.72
55590;BME280;41452;42.780;23.116;2023-04-21T00:16:55;93964.47;;;7.43;96.94
55590;BME280;41452;42.780;23.116;2023-04-21T00:19:20;93967.94;;;7.37;96.85
55590;BME280;41452;42.780;23.116;2023-04-21T00:21:47;93961.91;;;7.36;96.50
55590;BME280;41452;42.780;23.116;2023-04-21T00:24:13;93961.72;;;7.38;96.71
55590;BME280;41452;42.780;23.116;2023-04-21T00:26:38;93956.34;;;7.33;96.04
55590;BME280;41452;42.780;23.116;2023-04-21T00:29:04;93957.22;;;7.27;96.57
55590;BME280;41452;42.780;23.116;2023-04-21T00:31:30;93960.28;;;7.23;96.21
55590;BME280;41452;42.780;23.116;2023-04-21T00:33:55;93955.91;;;7.17;96.22
55590;BME280;41452;42.780;23.116;2023-04-21T00:36:21;93913.84;;;6.89;96.50
55590;BME280;41452;42.780;23.116;2023-04-21T00:38:49;93899.19;;;6.69;96.40
55590;BME280;41452;42.780;23.116;2023-04-21T00:41:14;93957.72;;;7.17;96.76
55590;BME280;41452;42.780;23.116;2023-04-21T00:44:02;93964.19;;;7.14;96.79
55590;BME280;41452;42.780;23.116;2023-04-21T00:46:28;93964.25;;;7.08;96.49
55590;BME280;41452;42.780;23.116;2023-04-21T00:48:53;93955.91;;;6.99;96.51
55590;BME280;41452;42.780;23.116;2023-04-21T00:51:19;93965.63;;;7.10;96.32
55590;BME280;41452;42.780;23.116;2023-04-21T00:53:45;93962.88;;;7.05;96.80
55590;BME280;41452;42.780;23.116;2023-04-21T00:56:10;93959.47;;;7.04;97.09
55590;BME280;41452;42.780;23.116;2023-04-21T00:58:38;93964.47;;;7.06;96.30
55590;BME280;41452;42.780;23.116;2023-04-21T01:01:06;93956.28;;;7.02;96.47
55590;BME280;41452;42.780;23.116;2023-04-21T01:03:31;93956.28;;;7.02;96.48
55590;BME280;41452;42.780;23.116;2023-04-21T01:05:57;93954.66;;;7.01;96.20
55590;BME280;41452;42.780;23.116;2023-04-21T01:08:22;93952.28;;;7.00;96.20
55590;BME280;41452;42.780;23.116;2023-04-21T01:10:47;93929.81;;;6.80;96.59
55590;BME280;41452;42.780;23.116;2023-04-21T01:13:13;93954.03;;;6.88;96.71
55590;BME280;41452;42.780;23.116;2023-04-21T01:15:38;93954.09;;;6.81;97.17
55590;BME280;41452;42.780;23.116;2023-04-21T01:18:04;93954.47;;;6.84;97.24
55590;BME280;41452;42.780;23.116;2023-04-21T01:20:29;93887.00;;;6.44;96.89
55590;BME280;41452;42.780;23.116;2023-04-21T01:22:54;93934.88;;;6.75;96.78
55590;BME280;41452;42.780;23.116;2023-04-21T01:25:20;93934.63;;;6.77;97.32
55590;BME280;41452;42.780;23.116;2023-04-21T01:27:50;93940.25;;;6.80;97.32
55590;BME280;41452;42.780;23.116;2023-04-21T01:30:16;93940.09;;;6.75;98.04
55590;BME280;41452;42.780;23.116;2023-04-21T01:32:42;93938.69;;;6.73;98.24
55590;BME280;41452;42.780;23.116;2023-04-21T01:35:08;93944.94;;;6.72;98.82
55590;BME280;41452;42.780;23.116;2023-04-21T01:37:33;93942.47;;;6.77;98.62
55590;BME280;41452;42.780;23.116;2023-04-21T01:40:01;93929.50;;;6.70;99.51
55590;BME280;41452;42.780;23.116;2023-04-21T01:42:29;93936.50;;;6.70;99.39
55590;BME280;41452;42.780;23.116;2023-04-21T01:44:55;93925.34;;;6.62;99.90
55590;BME280;41452;42.780;23.116;2023-04-21T01:47:22;93926.06;;;6.70;100.00
55590;BME280;41452;42.780;23.116;2023-04-21T01:49:47;93916.50;;;6.63;100.00
55590;BME280;41452;42.780;23.116;2023-04-21T01:52:13;93935.72;;;6.69;100.00
55590;BME280;41452;42.780;23.116;2023-04-21T01:54:38;93917.16;;;6.59;99.68
55590;BME280;41452;42.780;23.116;2023-04-21T01:57:04;93931.75;;;6.66;100.00
55590;BME280;41452;42.780;23.116;2023-04-21T01:59:30;93932.16;;;6.63;100.00
55590;BME280;41452;42.780;23.116;2023-04-21T02:01:56;93897.22;;;6.46;99.84
55590;BME280;41452;42.780;23.116;2023-04-21T02:04:21;93932.16;;;6.63;100.00
55590;BME280;41452;42.780;23.116;2023-04-21T02:06:46;93868.94;;;6.24;100.00
55590;BME280;41452;42.780;23.116;2023-04-21T02:09:12;93851.03;;;6.09;99.71
55590;BME280;41452;42.780;23.116;2023-04-21T02:11:37;93937.03;;;6.60;100.00
55590;BME280;41452;42.780;23.116;2023-04-21T02:14:03;93899.59;;;6.29;100.00
55590;BME280;41452;42.780;23.116;2023-04-21T02:16:28;93926.28;;;6.50;100.00
55590;BME280;41452;42.780;23.116;2023-04-21T02:18:55;93938.31;;;6.51;100.00
55590;BME280;41452;42.780;23.116;2023-04-21T02:21:30;93903.78;;;6.30;100.00
55590;BME280;41452;42.780;23.116;2023-04-21T02:23:56;93866.50;;;6.04;99.84
55590;BME280;41452;42.780;23.116;2023-04-21T02:26:21;93939.53;;;6.48;99.68
55590;BME280;41452;42.780;23.116;2023-04-21T02:28:48;93937.13;;;6.46;99.44
55590;BME280;41452;42.780;23.116;2023-04-21T02:31:14;93935.91;;;6.49;99.63
55590;BME280;41452;42.780;23.116;2023-04-21T02:33:40;93936.56;;;6.44;99.46
55590;BME280;41452;42.780;23.116;2023-04-21T02:36:05;93875.31;;;6.03;99.69
55590;BME280;41452;42.780;23.116;2023-04-21T02:38:31;93904.31;;;6.14;100.00
55590;BME280;41452;42.780;23.116;2023-04-21T02:40:57;93933.31;;;6.24;100.00
55590;BME280;41452;42.780;23.116;2023-04-21T02:43:22;93867.09;;;5.75;100.00
55590;BME280;41452;42.780;23.116;2023-04-21T02:45:49;93897.03;;;5.97;100.00
55590;BME280;41452;42.780;23.116;2023-04-21T02:48:14;93929.97;;;6.17;100.00
55590;BME280;41452;42.780;23.116;2023-04-21T02:50:41;93939.53;;;6.23;100.00
55590;BME280;41452;42.780;23.116;2023-04-21T02:53:07;93914.78;;;6.07;100.00
55590;BME280;41452;42.780;23.116;2023-04-21T02:55:32;93938.75;;;6.22;100.00
55590;BME280;41452;42.780;23.116;2023-04-21T02:57:57;93934.16;;;6.18;100.00
55590;BME280;41452;42.780;23.116;2023-04-21T03:00:23;93943.31;;;6.27;100.00
55590;BME280;41452;42.780;23.116;2023-04-21T03:02:48;93940.50;;;6.28;100.00
55590;BME280;41452;42.780;23.116;2023-04-21T03:05:13;93939.53;;;6.23;100.00
55590;BME280;41452;42.780;23.116;2023-04-21T03:07:39;93946.53;;;6.29;100.00
55590;BME280;41452;42.780;23.116;2023-04-21T03:10:05;93945.91;;;6.27;100.00
55590;BME280;41452;42.780;23.116;2023-04-21T03:12:31;93920.22;;;6.05;100.00
55590;BME280;41452;42.780;23.116;2023-04-21T03:14:56;93940.94;;;6.25;100.00
55590;BME280;41452;42.780;23.116;2023-04-21T03:17:23;93944.19;;;6.21;100.00
55590;BME280;41452;42.780;23.116;2023-04-21T03:19:48;93944.59;;;6.18;100.00
55590;BME280;41452;42.780;23.116;2023-04-21T03:22:13;93945.63;;;6.17;100.00
55590;BME280;41452;42.780;23.116;2023-04-21T03:24:39;93948.44;;;6.15;100.00
55590;BME280;41452;42.780;23.116;2023-04-21T03:27:05;93950.84;;;6.17;100.00
55590;BME280;41452;42.780;23.116;2023-04-21T03:29:31;93955.50;;;6.08;100.00
55590;BME280;41452;42.780;23.116;2023-04-21T03:31:56;93921.63;;;5.69;100.00
55590;BME280;41452;42.780;23.116;2023-04-21T03:34:22;93946.44;;;5.79;100.00
55590;BME280;41452;42.780;23.116;2023-04-21T03:36:47;93945.84;;;5.77;100.00
55590;BME280;41452;42.780;23.116;2023-04-21T03:39:12;93954.84;;;5.81;100.00
55590;BME280;41452;42.780;23.116;2023-04-21T03:41:38;93951.22;;;5.82;100.00
55590;BME280;41452;42.780;23.116;2023-04-21T03:44:03;93953.66;;;5.77;100.00
55590;BME280;41452;42.780;23.116;2023-04-21T03:46:29;93945.69;;;5.71;100.00
55590;BME280;41452;42.780;23.116;2023-04-21T03:48:54;93947.66;;;5.76;100.00
55590;BME280;41452;42.780;23.116;2023-04-21T03:51:19;93950.06;;;5.78;100.00
55590;BME280;41452;42.780;23.116;2023-04-21T03:53:45;93951.81;;;5.84;100.00
55590;BME280;41452;42.780;23.116;2023-04-21T03:56:10;93958.59;;;5.92;100.00
55590;BME280;41452;42.780;23.116;2023-04-21T03:58:36;93953.38;;;5.92;100.00
55590;BME280;41452;42.780;23.116;2023-04-21T04:01:04;93963.94;;;6.03;100.00
55590;BME280;41452;42.780;23.116;2023-04-21T04:03:29;93954.28;;;6.11;100.00
55590;BME280;41452;42.780;23.116;2023-04-21T04:05:55;93966.47;;;6.17;100.00
55590;BME280;41452;42.780;23.116;2023-04-21T04:08:20;93973.66;;;6.21;100.00
55590;BME280;41452;42.780;23.116;2023-04-21T04:10:46;93885.16;;;5.69;100.00
55590;BME280;41452;42.780;23.116;2023-04-21T04:13:11;93950.38;;;6.20;100.00
55590;BME280;41452;42.780;23.116;2023-04-21T04:15:36;93978.56;;;6.36;100.00
55590;BME280;41452;42.780;23.116;2023-04-21T04:18:02;93985.78;;;6.34;100.00
55590;BME280;41452;42.780;23.116;2023-04-21T04:20:27;93957.38;;;6.26;100.00
55590;BME280;41452;42.780;23.116;2023-04-21T04:22:53;93990.03;;;6.54;100.00
55590;BME280;41452;42.780;23.116;2023-04-21T04:25:18;93962.91;;;6.36;100.00
55590;BME280;41452;42.780;23.116;2023-04-21T04:27:43;93992.56;;;6.67;100.00
55590;BME280;41452;42.780;23.116;2023-04-21T04:30:10;93933.69;;;6.27;100.00
55590;BME280;41452;42.780;23.116;2023-04-21T04:32:36;93993.50;;;6.73;100.00
55590;BME280;41452;42.780;23.116;2023-04-21T04:35:04;93995.47;;;6.77;100.00
55590;BME280;41452;42.780;23.116;2023-04-21T04:37:30;93991.84;;;6.78;100.00
55590;BME280;41452;42.780;23.116;2023-04-21T04:39:56;93955.28;;;6.60;100.00
55590;BME280;41452;42.780;23.116;2023-04-21T04:42:22;93987.44;;;6.79;100.00
55590;BME280;41452;42.780;23.116;2023-04-21T04:44:52;93738.72;;;5.17;100.00
55590;BME280;41452;42.780;23.116;2023-04-21T04:47:17;94008.19;;;6.92;100.00
55590;BME280;41452;42.780;23.116;2023-04-21T04:49:43;94007.75;;;6.95;100.00
55590;BME280;41452;42.780;23.116;2023-04-21T04:52:08;94004.28;;;7.01;100.00
55590;BME280;41452;42.780;23.116;2023-04-21T04:54:33;93998.41;;;7.06;100.00
55590;BME280;41452;42.780;23.116;2023-04-21T04:56:59;94010.03;;;7.10;100.00
55590;BME280;41452;42.780;23.116;2023-04-21T04:59:25;94009.97;;;7.17;100.00
55590;BME280;41452;42.780;23.116;2023-04-21T05:01:50;94009.91;;;7.23;100.00
55590;BME280;41452;42.780;23.116;2023-04-21T05:04:16;94012.94;;;7.20;100.00
55590;BME280;41452;42.780;23.116;2023-04-21T05:06:41;94019.81;;;7.33;100.00
55590;BME280;41452;42.780;23.116;2023-04-21T05:09:07;94016.34;;;7.39;100.00
55590;BME280;41452;42.780;23.116;2023-04-21T05:11:32;93972.91;;;7.27;100.00
55590;BME280;41452;42.780;23.116;2023-04-21T05:13:58;94015.47;;;7.64;100.00
55590;BME280;41452;42.780;23.116;2023-04-21T05:16:23;94011.19;;;7.70;100.00
55590;BME280;41452;42.780;23.116;2023-04-21T05:18:49;93999.31;;;7.67;100.00
55590;BME280;41452;42.780;23.116;2023-04-21T05:21:26;94015.00;;;7.86;100.00
55590;BME280;41452;42.780;23.116;2023-04-21T05:23:56;94010.69;;;7.91;100.00
55590;BME280;41452;42.780;23.116;2023-04-21T05:26:25;94010.16;;;8.01;100.00
55590;BME280;41452;42.780;23.116;2023-04-21T05:28:52;93967.25;;;7.90;100.00
55590;BME280;41452;42.780;23.116;2023-04-21T05:31:17;93996.25;;;8.19;100.00
55590;BME280;41452;42.780;23.116;2023-04-21T05:33:43;94003.56;;;8.41;100.00
55590;BME280;41452;42.780;23.116;2023-04-21T05:36:09;93985.13;;;8.35;100.00
55590;BME280;41452;42.780;23.116;2023-04-21T05:38:35;93985.41;;;8.57;100.00
55590;BME280;41452;42.780;23.116;2023-04-21T05:41:01;93993.28;;;8.81;100.00
55590;BME280;41452;42.780;23.116;2023-04-21T05:43:27;93997.38;;;8.89;100.00
55590;BME280;41452;42.780;23.116;2023-04-21T05:45:52;93999.09;;;8.95;100.00
55590;BME280;41452;42.780;23.116;2023-04-21T05:48:18;93998.75;;;9.03;100.00
55590;BME280;41452;42.780;23.116;2023-04-21T05:50:43;94002.63;;;9.12;100.00
55590;BME280;41452;42.780;23.116;2023-04-21T05:53:08;94002.28;;;9.21;100.00
55590;BME280;41452;42.780;23.116;2023-04-21T05:55:34;94005.47;;;9.23;98.91
55590;BME280;41452;42.780;23.116;2023-04-21T05:58:00;93945.56;;;8.91;98.03
55590;BME280;41452;42.780;23.116;2023-04-21T06:00:25;93986.44;;;9.27;99.79
55590;BME280;41452;42.780;23.116;2023-04-21T06:02:51;94006.22;;;9.47;99.60
55590;BME280;41452;42.780;23.116;2023-04-21T06:05:17;94003.00;;;9.57;99.45
55590;BME280;41452;42.780;23.116;2023-04-21T06:07:42;93995.13;;;9.68;98.16
55590;BME280;41452;42.780;23.116;2023-04-21T06:10:08;94000.19;;;9.75;98.72
55590;BME280;41452;42.780;23.116;2023-04-21T06:12:33;93995.28;;;9.79;98.05
55590;BME280;41452;42.780;23.116;2023-04-21T06:14:59;93995.97;;;9.86;98.52
55590;BME280;41452;42.780;23.116;2023-04-21T06:17:24;93993.09;;;9.87;96.71
55590;BME280;41452;42.780;23.116;2023-04-21T06:19:50;93994.69;;;9.88;95.44
55590;BME280;41452;42.780;23.116;2023-04-21T06:22:23;94002.25;;;9.85;95.47
55590;BME280;41452;42.780;23.116;2023-04-21T06:24:49;93985.19;;;9.70;96.18
55590;BME280;41452;42.780;23.116;2023-04-21T06:27:15;93989.97;;;9.74;97.01
55590;BME280;41452;42.780;23.116;2023-04-21T06:29:41;93994.03;;;9.81;97.75
55590;BME280;41452;42.780;23.116;2023-04-21T06:32:07;93993.59;;;9.84;96.84
55590;BME280;41452;42.780;23.116;2023-04-21T06:34:32;93997.31;;;9.88;96.42
55590;BME280;41452;42.780;23.116;2023-04-21T06:36:58;93969.16;;;9.84;96.54
55590;BME280;41452;42.780;23.116;2023-04-21T06:39:23;93993.84;;;10.00;96.71
55590;BME280;41452;42.780;23.116;2023-04-21T06:41:48;93976.75;;;9.97;98.51
55590;BME280;41452;42.780;23.116;2023-04-21T06:44:14;93987.66;;;10.06;96.74
55590;BME280;41452;42.780;23.116;2023-04-21T06:46:40;93987.13;;;10.04;96.37
55590;BME280;41452;42.780;23.116;2023-04-21T06:49:07;93990.00;;;10.19;95.74
55590;BME280;41452;42.780;23.116;2023-04-21T06:51:33;93985.88;;;10.23;95.69
55590;BME280;41452;42.780;23.116;2023-04-21T06:53:58;93988.34;;;10.30;94.05
55590;BME280;41452;42.780;23.116;2023-04-21T06:56:28;93983.19;;;10.35;94.96
55590;BME280;41452;42.780;23.116;2023-04-21T06:58:54;93983.53;;;10.39;97.14
55590;BME280;41452;42.780;23.116;2023-04-21T07:01:20;93982.34;;;10.46;96.27
55590;BME280;41452;42.780;23.116;2023-04-21T07:03:45;93974.56;;;10.52;93.98
55590;BME280;41452;42.780;23.116;2023-04-21T07:06:11;93961.91;;;10.49;95.86
55590;BME280;41452;42.780;23.116;2023-04-21T07:08:37;93987.09;;;10.83;94.13
55590;BME280;41452;42.780;23.116;2023-04-21T07:11:03;93984.94;;;10.97;93.58
55590;BME280;41452;42.780;23.116;2023-04-21T07:13:28;93984.47;;;11.17;92.86
55590;BME280;41452;42.780;23.116;2023-04-21T07:15:54;93989.28;;;11.26;91.38
55590;BME280;41452;42.780;23.116;2023-04-21T07:18:20;93987.78;;;11.52;93.22
55590;BME280;41452;42.780;23.116;2023-04-21T07:20:45;93974.75;;;11.62;89.69
55590;BME280;41452;42.780;23.116;2023-04-21T07:23:11;93929.03;;;11.41;88.05
55590;BME280;41452;42.780;23.116;2023-04-21T07:25:36;93982.59;;;12.01;89.14
55590;BME280;41452;42.780;23.116;2023-04-21T07:28:02;93986.50;;;11.98;86.78
55590;BME280;41452;42.780;23.116;2023-04-21T07:30:28;93968.91;;;12.04;85.94
55590;BME280;41452;42.780;23.116;2023-04-21T07:32:55;93975.38;;;12.18;88.60
55590;BME280;41452;42.780;23.116;2023-04-21T07:35:20;93965.75;;;12.29;85.65
55590;BME280;41452;42.780;23.116;2023-04-21T07:37:46;93976.88;;;12.36;84.35
55590;BME280;41452;42.780;23.116;2023-04-21T07:40:11;93977.25;;;12.23;83.93
55590;BME280;41452;42.780;23.116;2023-04-21T07:42:37;93996.53;;;12.29;85.06
55590;BME280;41452;42.780;23.116;2023-04-21T07:45:03;93990.19;;;12.25;82.39
55590;BME280;41452;42.780;23.116;2023-04-21T07:47:30;93940.59;;;11.89;83.46
55590;BME280;41452;42.780;23.116;2023-04-21T07:49:56;93756.66;;;10.74;84.32
55590;BME280;41452;42.780;23.116;2023-04-21T07:52:22;93996.69;;;12.17;81.86
55590;BME280;41452;42.780;23.116;2023-04-21T07:54:47;93995.59;;;12.13;82.79
55590;BME280;41452;42.780;23.116;2023-04-21T07:57:13;93921.59;;;11.60;82.06
55590;BME280;41452;42.780;23.116;2023-04-21T07:59:38;93989.41;;;12.02;84.25
55590;BME280;41452;42.780;23.116;2023-04-21T08:02:03;93996.03;;;12.05;83.96
55590;BME280;41452;42.780;23.116;2023-04-21T08:04:29;94002.41;;;12.09;82.84
55590;BME280;41452;42.780;23.116;2023-04-21T08:06:55;93992.94;;;12.13;84.39
55590;BME280;41452;42.780;23.116;2023-04-21T08:09:20;93959.56;;;11.91;82.21
55590;BME280;41452;42.780;23.116;2023-04-21T08:11:45;93987.19;;;12.16;84.85
55590;BME280;41452;42.780;23.116;2023-04-21T08:14:11;93965.75;;;12.02;86.41
55590;BME280;41452;42.780;23.116;2023-04-21T08:16:37;93928.69;;;11.82;83.46
55590;BME280;41452;42.780;23.116;2023-04-21T08:19:05;93990.13;;;12.20;81.96
55590;BME280;41452;42.780;23.116;2023-04-21T08:21:31;93989.41;;;12.24;82.38
55590;BME280;41452;42.780;23.116;2023-04-21T08:23:57;93965.78;;;12.07;81.14
55590;BME280;41452;42.780;23.116;2023-04-21T08:26:23;93953.81;;;11.94;82.08
55590;BME280;41452;42.780;23.116;2023-04-21T08:28:49;93954.13;;;11.98;83.77
55590;BME280;41452;42.780;23.116;2023-04-21T08:31:16;93945.16;;;11.99;81.86
55590;BME280;41452;42.780;23.116;2023-04-21T08:33:42;93977.06;;;12.30;82.58
55590;BME280;41452;42.780;23.116;2023-04-21T08:36:07;93977.94;;;12.41;81.17
55590;BME280;41452;42.780;23.116;2023-04-21T08:38:34;93971.44;;;12.48;80.71
55590;BME280;41452;42.780;23.116;2023-04-21T08:40:59;93979.63;;;12.52;78.71
55590;BME280;41452;42.780;23.116;2023-04-21T08:43:27;93982.06;;;12.59;80.61
55590;BME280;41452;42.780;23.116;2023-04-21T08:45:54;93979.78;;;12.72;81.00
55590;BME280;41452;42.780;23.116;2023-04-21T08:48:20;93975.50;;;12.66;78.41
55590;BME280;41452;42.780;23.116;2023-04-21T08:50:48;93962.25;;;12.88;79.29
55590;BME280;41452;42.780;23.116;2023-04-21T08:53:15;93971.19;;;12.87;78.26
55590;BME280;41452;42.780;23.116;2023-04-21T08:55:41;93975.56;;;13.14;82.99
55590;BME280;41452;42.780;23.116;2023-04-21T08:58:06;93946.06;;;13.17;79.49
55590;BME280;41452;42.780;23.116;2023-04-21T09:00:34;93961.25;;;13.42;75.04
55590;BME280;41452;42.780;23.116;2023-04-21T09:03:00;93957.88;;;13.57;75.63
55590;BME280;41452;42.780;23.116;2023-04-21T09:05:29;93937.34;;;13.64;75.57
55590;BME280;41452;42.780;23.116;2023-04-21T09:08:14;93956.66;;;13.80;72.21
55590;BME280;41452;42.780;23.116;2023-04-21T09:10:48;93956.94;;;13.94;74.69
55590;BME280;41452;42.780;23.116;2023-04-21T09:13:14;93951.41;;;13.91;72.25
55590;BME280;41452;42.780;23.116;2023-04-21T09:15:41;93955.66;;;13.97;72.66
55590;BME280;41452;42.780;23.116;2023-04-21T09:18:16;93945.91;;;14.23;74.21
55590;BME280;41452;42.780;23.116;2023-04-21T09:20:43;93940.38;;;14.30;75.02
55590;BME280;41452;42.780;23.116;2023-04-21T09:23:09;93942.00;;;14.46;73.93
55590;BME280;41452;42.780;23.116;2023-04-21T09:25:38;93935.41;;;14.59;70.58
55590;BME280;41452;42.780;23.116;2023-04-21T09:28:07;93936.47;;;14.68;71.26
55590;BME280;41452;42.780;23.116;2023-04-21T09:30:37;93934.34;;;14.86;71.99
55590;BME280;41452;42.780;23.116;2023-04-21T09:33:03;93907.34;;;14.89;72.20
55590;BME280;41452;42.780;23.116;2023-04-21T09:35:33;93935.09;;;15.07;69.01
55590;BME280;41452;42.780;23.116;2023-04-21T09:38:03;93932.47;;;15.07;69.92
55590;BME280;41452;42.780;23.116;2023-04-21T09:40:29;93931.63;;;15.11;71.25
55590;BME280;41452;42.780;23.116;2023-04-21T09:42:55;93888.34;;;14.56;68.65
55590;BME280;41452;42.780;23.116;2023-04-21T09:45:27;93912.16;;;14.61;68.54
55590;BME280;41452;42.780;23.116;2023-04-21T09:47:57;93938.31;;;14.73;71.79
55590;BME280;41452;42.780;23.116;2023-04-21T09:50:24;93906.34;;;14.59;69.48
55590;BME280;41452;42.780;23.116;2023-04-21T09:52:51;93935.13;;;14.71;67.93
55590;BME280;41452;42.780;23.116;2023-04-21T09:55:17;93879.09;;;14.12;66.15
55590;BME280;41452;42.780;23.116;2023-04-21T09:57:46;93926.66;;;14.38;68.96
55590;BME280;41452;42.780;23.116;2023-04-21T10:00:13;93926.91;;;14.31;67.92
55590;BME280;41452;42.780;23.116;2023-04-21T10:02:43;93927.97;;;14.35;69.21
55590;BME280;41452;42.780;23.116;2023-04-21T10:05:09;93925.34;;;14.45;68.16
55590;BME280;41452;42.780;23.116;2023-04-21T10:07:36;93926.94;;;14.67;70.04
55590;BME280;41452;42.780;23.116;2023-04-21T10:10:01;93915.84;;;14.86;68.40
55590;BME280;41452;42.780;23.116;2023-04-21T10:12:27;93914.47;;;15.04;68.15
55590;BME280;41452;42.780;23.116;2023-04-21T10:14:54;93932.72;;;15.10;66.29
55590;BME280;41452;42.780;23.116;2023-04-21T10:17:25;93923.47;;;15.02;67.31
55590;BME280;41452;42.780;23.116;2023-04-21T10:19:55;93922.66;;;15.12;68.61
55590;BME280;41452;42.780;23.116;2023-04-21T10:22:27;93919.94;;;15.28;67.21
55590;BME280;41452;42.780;23.116;2023-04-21T10:24:56;93922.00;;;15.46;67.63
55590;BME280;41452;42.780;23.116;2023-04-21T10:27:36;93908.75;;;15.56;66.86
55590;BME280;41452;42.780;23.116;2023-04-21T10:30:23;93908.66;;;15.72;68.77
55590;BME280;41452;42.780;23.116;2023-04-21T10:33:04;93911.81;;;15.74;64.92
55590;BME280;41452;42.780;23.116;2023-04-21T10:38:33;93908.59;;;15.92;64.59
55590;BME280;41452;42.780;23.116;2023-04-21T10:41:24;93908.53;;;16.03;61.36
55590;BME280;41452;42.780;23.116;2023-04-21T10:43:51;93901.69;;;15.91;60.44
55590;BME280;41452;42.780;23.116;2023-04-21T10:46:39;93910.81;;;16.14;63.79
55590;BME280;41452;42.780;23.116;2023-04-21T10:49:09;93906.34;;;16.15;62.64
55590;BME280;41452;42.780;23.116;2023-04-21T10:57:19;93908.94;;;15.75;59.78
55590;BME280;41452;42.780;23.116;2023-04-21T10:59:45;93911.50;;;15.91;61.62
55590;BME280;41452;42.780;23.116;2023-04-21T11:02:13;93910.97;;;15.94;59.11
55590;BME280;41452;42.780;23.116;2023-04-21T11:04:40;93911.75;;;15.94;63.21
55590;BME280;41452;42.780;23.116;2023-04-21T11:07:14;93905.16;;;15.92;62.73
55590;BME280;41452;42.780;23.116;2023-04-21T11:09:41;93904.84;;;15.99;65.14
55590;BME280;41452;42.780;23.116;2023-04-21T11:12:14;93867.16;;;15.62;65.49
55590;BME280;41452;42.780;23.116;2023-04-21T11:14:43;93920.94;;;15.47;62.56
55590;BME280;41452;42.780;23.116;2023-04-21T11:17:13;93928.84;;;15.52;61.58
55590;BME280;41452;42.780;23.116;2023-04-21T11:19:40;93924.16;;;15.44;59.87
55590;BME280;41452;42.780;23.116;2023-04-21T11:22:05;93911.75;;;15.29;61.04
55590;BME280;41452;42.780;23.116;2023-04-21T11:24:31;93914.47;;;15.04;61.57
55590;BME280;41452;42.780;23.116;2023-04-21T11:26:57;93915.22;;;15.25;63.64
55590;BME280;41452;42.780;23.116;2023-04-21T11:29:25;93892.47;;;15.24;61.14
55590;BME280;41452;42.780;23.116;2023-04-21T11:31:50;93917.59;;;15.26;62.26
55590;BME280;41452;42.780;23.116;2023-04-21T11:34:19;93915.47;;;15.23;65.01
55590;BME280;41452;42.780;23.116;2023-04-21T11:36:45;93914.72;;;15.12;67.34
55590;BME280;41452;42.780;23.116;2023-04-21T11:39:13;93912.59;;;15.09;66.69
55590;BME280;41452;42.780;23.116;2023-04-21T11:41:41;93913.13;;;15.06;66.74
55590;BME280;41452;42.780;23.116;2023-04-21T11:44:09;93909.97;;;15.09;65.62
55590;BME280;41452;42.780;23.116;2023-04-21T11:46:35;93923.66;;;15.27;64.45
55590;BME280;41452;42.780;23.116;2023-04-21T11:49:09;93917.91;;;14.99;64.33
55590;BME280;41452;42.780;23.116;2023-04-21T11:51:40;93916.03;;;15.05;68.48
55590;BME280;41452;42.780;23.116;2023-04-21T11:54:11;93915.78;;;15.01;66.05
55590;BME280;41452;42.780;23.116;2023-04-21T11:56:38;93918.41;;;15.06;66.25
55590;BME280;41452;42.780;23.116;2023-04-21T12:04:13;93921.66;;;14.67;64.36
55590;BME280;41452;42.780;23.116;2023-04-21T12:06:40;93912.66;;;14.83;66.88
55590;BME280;41452;42.780;23.116;2023-04-21T12:09:06;93921.63;;;14.93;66.19
55590;BME280;41452;42.780;23.116;2023-04-21T12:11:32;93913.72;;;14.82;64.09
55590;BME280;41452;42.780;23.116;2023-04-21T12:13:58;93918.72;;;14.89;66.63
55590;BME280;41452;42.780;23.116;2023-04-21T12:16:27;93923.22;;;14.89;66.12
55590;BME280;41452;42.780;23.116;2023-04-21T12:18:54;93921.63;;;14.98;64.50
55590;BME280;41452;42.780;23.116;2023-04-21T12:21:19;93911.56;;;15.05;67.62
55590;BME280;41452;42.780;23.116;2023-04-21T12:23:45;93910.25;;;14.97;66.23
55590;BME280;41452;42.780;23.116;2023-04-21T12:26:10;93914.47;;;15.04;67.86
55590;BME280;41452;42.780;23.116;2023-04-21T12:28:39;93897.88;;;14.72;66.07
55590;BME280;41452;42.780;23.116;2023-04-21T12:31:05;93892.84;;;14.45;67.08
55590;BME280;41452;42.780;23.116;2023-04-21T12:33:31;93824.47;;;14.18;68.20
55590;BME280;41452;42.780;23.116;2023-04-21T12:35:56;93909.22;;;14.88;67.59
55590;BME280;41452;42.780;23.116;2023-04-21T12:38:21;93811.25;;;14.18;67.46
55590;BME280;41452;42.780;23.116;2023-04-21T12:40:47;93852.69;;;14.27;69.10
55590;BME280;41452;42.780;23.116;2023-04-21T12:43:12;93897.34;;;14.86;70.04
55590;BME280;41452;42.780;23.116;2023-04-21T12:45:38;93890.44;;;14.90;68.79
55590;BME280;41452;42.780;23.116;2023-04-21T12:48:03;93896.50;;;14.85;65.82
55590;BME280;41452;42.780;23.116;2023-04-21T12:50:29;93887.53;;;14.96;66.45
55590;BME280;41452;42.780;23.116;2023-04-21T12:52:54;93892.47;;;15.24;66.86
55590;BME280;41452;42.780;23.116;2023-04-21T12:55:21;93851.81;;;14.99;64.50
55590;BME280;41452;42.780;23.116;2023-04-21T12:57:46;93896.94;;;15.28;64.00
55590;BME280;41452;42.780;23.116;2023-04-21T13:00:12;93844.97;;;14.88;64.99
55590;BME280;41452;42.780;23.116;2023-04-21T13:02:39;93893.00;;;15.20;63.39
55590;BME280;41452;42.780;23.116;2023-04-21T13:05:05;93893.03;;;15.15;62.27